Time;durP1;ratioP1;P1;durP2;ratioP2;P2;SDS_P1;SDS_P2;PMS_P1;PMS_P2;Temp;Humidity;BMP_temperature;BMP_pressure;BME280_temperature;BME280_humidity;BME280_pressure;Samples;Min_cycle;Max_cycle;Signal;HPM_P1;HPM_P2
2021/08/24 00:01:16;;;;;;;11.82;4.80;;;14.80;93.40;;;;;;5048847;28;20048;-59
2021/08/24 00:03:43;;;;;;;10.40;4.82;;;14.80;93.60;;;;;;5042700;28;20045;-59
2021/08/24 00:06:09;;;;;;;8.95;4.72;;;14.70;93.60;;;;;;5053998;28;20103;-59
2021/08/24 00:08:35;;;;;;;11.85;5.15;;;14.70;93.80;;;;;;5064882;28;20041;-60
2021/08/24 00:11:02;;;;;;;10.45;4.85;;;14.70;93.70;;;;;;5053055;28;20068;-60
2021/08/24 00:13:28;;;;;;;8.70;5.25;;;14.60;93.80;;;;;;5032849;28;20041;-60
2021/08/24 00:15:55;;;;;;;8.30;5.00;;;14.60;94.00;;;;;;5045157;28;20443;-59
2021/08/24 00:18:21;;;;;;;9.68;5.10;;;14.60;93.90;;;;;;5048154;28;20041;-60
2021/08/24 00:20:49;;;;;;;8.93;4.80;;;14.60;94.20;;;;;;5038926;28;20382;-59
2021/08/24 00:23:16;;;;;;;8.48;5.18;;;14.70;94.30;;;;;;5039433;28;20103;-58
2021/08/24 00:25:42;;;;;;;9.25;4.90;;;14.60;94.10;;;;;;5046512;28;20081;-58
2021/08/24 00:28:08;;;;;;;10.40;5.35;;;14.60;94.30;;;;;;5043278;28;20063;-57
2021/08/24 00:30:37;;;;;;;11.38;5.15;;;14.60;94.10;;;;;;5037734;28;20098;-56
2021/08/24 00:33:03;;;;;;;11.38;5.10;;;14.60;94.20;;;;;;5062020;28;20037;-55
2021/08/24 00:35:29;;;;;;;8.55;5.93;;;14.60;94.40;;;;;;5057675;28;20078;-55
2021/08/24 00:37:55;;;;;;;10.95;5.57;;;14.60;94.40;;;;;;5072411;28;20121;-55
2021/08/24 00:40:21;;;;;;;8.73;5.30;;;14.60;94.30;;;;;;5057483;28;20049;-54
2021/08/24 00:42:46;;;;;;;8.65;5.43;;;14.60;94.50;;;;;;5071073;28;20028;-54
2021/08/24 00:45:15;;;;;;;12.32;5.72;;;14.60;94.40;;;;;;5060558;28;20076;-57
2021/08/24 00:47:43;;;;;;;9.32;6.18;;;14.50;94.60;;;;;;5033958;28;20405;-55
2021/08/24 00:50:26;;;;;;;10.18;6.05;;;14.50;94.60;;;;;;5050186;28;20053;-55
2021/08/24 00:52:52;;;;;;;8.55;5.03;;;14.50;94.70;;;;;;5053077;28;20044;-54
2021/08/24 00:55:20;;;;;;;17.15;5.78;;;14.50;94.70;;;;;;5052073;28;20044;-55
2021/08/24 00:57:49;;;;;;;13.48;6.05;;;14.50;95.10;;;;;;5051826;28;20048;-55
2021/08/24 01:00:15;;;;;;;11.18;5.63;;;14.50;94.90;;;;;;5042293;28;20064;-55
2021/08/24 01:02:40;;;;;;;12.10;5.40;;;14.40;94.90;;;;;;5048277;28;20500;-57
2021/08/24 01:05:08;;;;;;;11.50;5.68;;;14.50;95.30;;;;;;5053118;28;20039;-55
2021/08/24 01:07:45;;;;;;;10.68;5.60;;;14.50;95.20;;;;;;5051613;28;20135;-58
2021/08/24 01:10:30;;;;;;;9.48;5.80;;;14.50;95.20;;;;;;5033548;28;20034;-57
2021/08/24 01:13:02;;;;;;;11.13;5.72;;;14.50;95.20;;;;;;5034647;28;20097;-57
2021/08/24 01:15:46;;;;;;;12.35;5.63;;;14.50;95.20;;;;;;5031203;28;20394;-56
2021/08/24 01:18:32;;;;;;;14.55;5.38;;;14.50;95.50;;;;;;5034029;28;20099;-58
2021/08/24 01:21:33;;;;;;;9.60;5.53;;;14.50;95.30;;;;;;5045368;28;20041;-58
2021/08/24 01:24:24;;;;;;;11.27;6.30;;;14.50;95.60;;;;;;5056006;28;20044;-56
2021/08/24 01:26:59;;;;;;;9.32;5.18;;;14.50;95.70;;;;;;5051662;28;20068;-58
2021/08/24 01:30:02;;;;;;;11.60;5.72;;;14.50;96.20;;;;;;5043273;28;20502;-58
2021/08/24 01:32:39;;;;;;;15.05;5.85;;;14.50;95.80;;;;;;5047823;28;20412;-58
2021/08/24 01:35:18;;;;;;;10.65;5.82;;;14.40;95.80;;;;;;5034458;28;20120;-59
2021/08/24 01:38:18;;;;;;;11.48;6.10;;;14.40;95.90;;;;;;5037905;28;20041;-58
2021/08/24 01:40:56;;;;;;;10.32;5.93;;;14.40;95.90;;;;;;5038513;28;20041;-56
2021/08/24 01:43:31;;;;;;;11.70;6.10;;;14.40;96.00;;;;;;5037065;28;20043;-57
2021/08/24 01:46:21;;;;;;;11.50;6.05;;;14.40;96.20;;;;;;5044976;28;20037;-58
2021/08/24 01:48:50;;;;;;;11.27;5.93;;;14.40;95.90;;;;;;5046345;28;20046;-55
2021/08/24 01:51:22;;;;;;;11.73;6.03;;;14.40;96.00;;;;;;5049953;28;20048;-56
2021/08/24 01:53:57;;;;;;;10.93;5.55;;;14.40;96.20;;;;;;5049149;28;20072;-57
2021/08/24 01:56:27;;;;;;;11.73;5.90;;;14.30;96.10;;;;;;5050862;28;20056;-58
2021/08/24 01:59:05;;;;;;;15.18;6.60;;;14.30;96.30;;;;;;5036130;28;20052;-56
2021/08/24 02:01:34;;;;;;;11.02;6.20;;;14.30;96.40;;;;;;5050997;28;20045;-55
2021/08/24 02:04:04;;;;;;;11.38;6.50;;;14.30;96.30;;;;;;5039196;28;20081;-58
2021/08/24 02:06:39;;;;;;;13.73;6.70;;;14.40;96.60;;;;;;5056153;28;20046;-58
2021/08/24 02:09:13;;;;;;;13.75;6.63;;;14.30;96.40;;;;;;5044502;28;20090;-57
2021/08/24 02:11:42;;;;;;;13.95;7.13;;;14.40;96.70;;;;;;5037138;28;20037;-58
2021/08/24 02:14:11;;;;;;;13.98;7.68;;;14.30;96.50;;;;;;5049140;28;20082;-57
2021/08/24 02:16:37;;;;;;;13.23;7.13;;;14.30;96.50;;;;;;5038848;28;20489;-58
2021/08/24 02:19:10;;;;;;;17.15;7.43;;;14.30;96.60;;;;;;5058421;28;20139;-58
2021/08/24 02:21:50;;;;;;;13.80;7.00;;;14.20;96.80;;;;;;5041429;28;20033;-57
2021/08/24 02:24:20;;;;;;;14.48;6.50;;;14.20;96.70;;;;;;5067542;28;20041;-57
2021/08/24 02:26:47;;;;;;;15.07;7.30;;;14.20;96.80;;;;;;5054273;28;20493;-56
2021/08/24 02:29:13;;;;;;;15.93;7.50;;;14.20;96.80;;;;;;5067674;28;20024;-58
2021/08/24 02:31:54;;;;;;;12.43;7.70;;;14.20;97.00;;;;;;5040593;28;20091;-58
2021/08/24 02:34:33;;;;;;;15.90;7.33;;;14.20;97.00;;;;;;5044053;28;20042;-58
2021/08/24 02:37:07;;;;;;;12.05;7.55;;;14.30;96.90;;;;;;5037760;28;20124;-59
2021/08/24 02:39:45;;;;;;;15.43;7.60;;;14.20;97.10;;;;;;5050398;28;20124;-58
2021/08/24 02:42:38;;;;;;;16.13;7.50;;;14.20;96.90;;;;;;5050446;28;20136;-58
2021/08/24 02:45:10;;;;;;;13.45;7.47;;;14.10;97.00;;;;;;5048802;28;20041;-56
2021/08/24 02:47:38;;;;;;;13.75;7.82;;;14.10;97.00;;;;;;5042638;28;20405;-55
2021/08/24 02:50:07;;;;;;;15.05;7.80;;;14.10;97.00;;;;;;5045763;28;20051;-57
2021/08/24 02:52:34;;;;;;;12.10;7.18;;;14.10;96.90;;;;;;5050383;28;20041;-59
2021/08/24 02:55:00;;;;;;;14.30;7.65;;;14.10;97.10;;;;;;5037299;28;20046;-58
2021/08/24 02:57:26;;;;;;;15.68;8.00;;;14.10;97.00;;;;;;5031473;28;20053;-58
2021/08/24 02:59:52;;;;;;;15.18;7.88;;;14.10;97.00;;;;;;5042798;28;20045;-56
2021/08/24 03:02:17;;;;;;;15.43;8.38;;;14.00;97.00;;;;;;5052381;28;20581;-56
2021/08/24 03:04:43;;;;;;;13.00;7.88;;;14.00;97.10;;;;;;5061486;28;20090;-56
2021/08/24 03:07:18;;;;;;;14.23;7.90;;;14.00;97.20;;;;;;5034678;28;20049;-55
2021/08/24 03:09:46;;;;;;;12.20;8.02;;;14.00;97.20;;;;;;5069573;28;20089;-58
2021/08/24 03:12:49;;;;;;;15.32;7.53;;;14.00;97.20;;;;;;5041166;28;20045;-58
2021/08/24 03:15:30;;;;;;;20.13;8.30;;;14.00;97.30;;;;;;5056883;28;20067;-55
2021/08/24 03:18:18;;;;;;;14.35;7.80;;;14.00;97.30;;;;;;5047775;28;20464;-58
2021/08/24 03:20:46;;;;;;;14.07;8.10;;;14.00;97.40;;;;;;5034480;28;20030;-58
2021/08/24 03:23:14;;;;;;;11.60;8.00;;;14.00;97.60;;;;;;5073626;28;20064;-56
2021/08/24 03:25:42;;;;;;;11.00;7.65;;;13.90;97.40;;;;;;5046989;28;20068;-57
2021/08/24 03:28:14;;;;;;;12.55;7.80;;;13.90;97.50;;;;;;5052061;28;20559;-56
2021/08/24 03:30:39;;;;;;;12.15;7.80;;;13.90;97.50;;;;;;5042589;28;20037;-56
2021/08/24 03:33:06;;;;;;;14.63;8.50;;;13.90;97.50;;;;;;5049030;28;20500;-56
2021/08/24 03:35:31;;;;;;;11.52;7.82;;;13.90;97.50;;;;;;5035520;28;20049;-55
2021/08/24 03:37:57;;;;;;;12.50;8.40;;;13.90;97.70;;;;;;5034612;28;20394;-56
2021/08/24 03:40:22;;;;;;;13.20;8.27;;;13.90;97.60;;;;;;5058997;28;20034;-55
2021/08/24 03:42:48;;;;;;;14.05;8.10;;;13.90;97.70;;;;;;5056869;28;20123;-55
2021/08/24 03:45:13;;;;;;;16.63;8.55;;;13.80;97.60;;;;;;5065084;28;20409;-55
2021/08/24 03:47:40;;;;;;;14.73;8.18;;;13.90;97.90;;;;;;5053032;28;20044;-57
2021/08/24 03:50:07;;;;;;;16.10;8.38;;;13.90;97.80;;;;;;5038493;28;20037;-57
2021/08/24 03:52:32;;;;;;;15.27;8.70;;;13.80;97.90;;;;;;5039583;28;20549;-58
2021/08/24 03:54:58;;;;;;;17.92;8.65;;;13.80;97.80;;;;;;5040694;28;20125;-57
2021/08/24 03:57:24;;;;;;;16.83;7.90;;;13.80;97.90;;;;;;5032654;28;20041;-55
2021/08/24 03:59:53;;;;;;;12.88;8.38;;;13.80;98.00;;;;;;5043625;28;20041;-55
2021/08/24 04:02:19;;;;;;;15.40;8.38;;;13.80;98.20;;;;;;5039072;28;20440;-56
2021/08/24 04:04:45;;;;;;;13.15;7.75;;;13.80;97.90;;;;;;5044025;28;20041;-54
2021/08/24 04:07:10;;;;;;;20.50;8.98;;;13.90;98.70;;;;;;5032214;28;20103;-56
2021/08/24 04:09:36;;;;;;;16.90;9.32;;;13.90;98.00;;;;;;5039640;28;20481;-55
2021/08/24 04:12:01;;;;;;;16.13;8.45;;;13.90;98.30;;;;;;5052676;28;20512;-58
2021/08/24 04:14:27;;;;;;;13.50;8.77;;;13.90;98.30;;;;;;5052558;28;20049;-57
2021/08/24 04:16:53;;;;;;;16.20;9.10;;;13.80;98.50;;;;;;5041756;28;20567;-55
2021/08/24 04:19:18;;;;;;;19.70;9.20;;;13.80;98.30;;;;;;5046488;28;20116;-55
2021/08/24 04:21:44;;;;;;;17.15;8.80;;;13.80;98.70;;;;;;5032614;28;20048;-55
2021/08/24 04:24:10;;;;;;;17.45;9.63;;;13.90;98.40;;;;;;5045011;28;20059;-56
2021/08/24 04:26:36;;;;;;;13.27;8.75;;;13.90;98.40;;;;;;5038621;28;20041;-55
2021/08/24 04:29:01;;;;;;;17.10;8.70;;;13.90;98.70;;;;;;5039807;28;20116;-56
2021/08/24 04:31:30;;;;;;;14.82;8.75;;;13.90;98.50;;;;;;5046280;28;20116;-57
2021/08/24 04:33:56;;;;;;;14.07;8.52;;;13.80;98.40;;;;;;5032569;28;20037;-57
2021/08/24 04:36:22;;;;;;;14.23;8.25;;;13.90;98.70;;;;;;5031930;28;20053;-59
2021/08/24 04:38:47;;;;;;;18.13;9.43;;;13.90;98.80;;;;;;5041379;28;20041;-55
2021/08/24 04:41:13;;;;;;;21.15;8.70;;;13.90;98.60;;;;;;5059792;28;20084;-53
2021/08/24 04:43:39;;;;;;;16.90;8.18;;;13.90;98.80;;;;;;5048415;28;20106;-51
2021/08/24 04:46:05;;;;;;;13.68;8.75;;;13.90;98.80;;;;;;5048786;28;20041;-53
2021/08/24 04:48:31;;;;;;;15.15;9.18;;;13.90;98.80;;;;;;5049821;28;20041;-53
2021/08/24 04:50:57;;;;;;;13.55;8.23;;;13.90;98.60;;;;;;5051395;28;20078;-53
2021/08/24 04:53:24;;;;;;;15.02;8.70;;;13.90;98.70;;;;;;5051793;28;20033;-53
2021/08/24 04:55:51;;;;;;;14.32;9.10;;;13.90;99.00;;;;;;5045178;28;20515;-56
2021/08/24 04:58:16;;;;;;;17.27;8.93;;;13.90;98.80;;;;;;5051858;28;20044;-53
2021/08/24 05:00:42;;;;;;;14.77;9.02;;;13.80;99.00;;;;;;5051598;28;20124;-55
2021/08/24 05:03:07;;;;;;;16.77;8.10;;;13.80;99.10;;;;;;5051633;28;20045;-53
2021/08/24 05:05:33;;;;;;;13.07;8.82;;;13.90;99.00;;;;;;5037548;28;20060;-52
2021/08/24 05:07:58;;;;;;;12.43;8.15;;;13.90;99.20;;;;;;5051423;28;20064;-54
2021/08/24 05:10:24;;;;;;;17.73;8.43;;;13.90;99.20;;;;;;5051426;28;20045;-56
2021/08/24 05:12:50;;;;;;;15.90;8.63;;;14.00;99.00;;;;;;5051403;28;20036;-53
2021/08/24 05:15:15;;;;;;;14.45;8.65;;;14.00;99.20;;;;;;5051927;28;20519;-54
2021/08/24 05:17:41;;;;;;;16.65;8.88;;;13.90;99.40;;;;;;5065142;28;20044;-55
2021/08/24 05:20:07;;;;;;;18.02;8.95;;;13.90;99.20;;;;;;5059928;28;20047;-55
2021/08/24 05:22:33;;;;;;;17.77;8.38;;;14.00;99.50;;;;;;5037445;28;20045;-55
2021/08/24 05:24:59;;;;;;;16.00;9.27;;;14.10;99.60;;;;;;5044840;28;20044;-53
2021/08/24 05:27:25;;;;;;;16.23;8.60;;;14.10;99.40;;;;;;5057713;28;20048;-53
2021/08/24 05:29:51;;;;;;;13.57;8.48;;;14.10;99.40;;;;;;5050773;28;20135;-54
2021/08/24 05:32:17;;;;;;;16.27;8.55;;;14.20;99.70;;;;;;5051476;28;20149;-54
2021/08/24 05:34:43;;;;;;;17.13;8.80;;;14.20;99.50;;;;;;5050691;28;20110;-56
2021/08/24 05:37:08;;;;;;;14.40;8.85;;;14.30;99.70;;;;;;5043248;28;20037;-54
2021/08/24 05:39:35;;;;;;;16.15;7.90;;;14.30;99.60;;;;;;5046686;28;20116;-55
2021/08/24 05:42:01;;;;;;;14.60;8.10;;;14.30;99.80;;;;;;5056520;28;20071;-52
2021/08/24 05:44:27;;;;;;;17.08;8.65;;;14.40;99.70;;;;;;5056718;28;20444;-56
2021/08/24 05:46:52;;;;;;;15.60;8.57;;;14.50;99.50;;;;;;5048959;28;20064;-54
2021/08/24 05:49:18;;;;;;;14.70;7.78;;;14.50;99.80;;;;;;5043220;28;20056;-55
2021/08/24 05:51:44;;;;;;;15.35;8.25;;;14.60;99.80;;;;;;5040235;28;20441;-55
2021/08/24 05:54:09;;;;;;;13.23;8.23;;;14.70;99.60;;;;;;5040045;28;20108;-55
2021/08/24 05:56:35;;;;;;;16.42;7.60;;;14.70;99.60;;;;;;5039371;28;20597;-57
2021/08/24 05:59:00;;;;;;;15.32;7.65;;;14.70;99.90;;;;;;5043136;28;20533;-54
2021/08/24 06:01:28;;;;;;;12.45;7.30;;;14.80;99.80;;;;;;5050759;28;20036;-54
2021/08/24 06:03:54;;;;;;;17.05;7.95;;;14.90;99.70;;;;;;5047985;28;20071;-55
2021/08/24 06:06:25;;;;;;;15.02;7.70;;;14.90;99.50;;;;;;5045187;28;20124;-53
2021/08/24 06:08:51;;;;;;;17.63;7.88;;;15.00;99.60;;;;;;5040071;28;20065;-55
2021/08/24 06:11:22;;;;;;;13.73;7.50;;;15.10;99.50;;;;;;5043026;28;20072;-55
2021/08/24 06:13:48;;;;;;;15.15;7.72;;;15.10;99.30;;;;;;5049499;28;20041;-54
2021/08/24 06:16:13;;;;;;;18.73;7.85;;;15.10;99.40;;;;;;5041818;28;20485;-53
2021/08/24 06:18:39;;;;;;;14.10;7.72;;;15.20;99.50;;;;;;5054942;28;20068;-54
2021/08/24 06:21:05;;;;;;;15.10;7.75;;;15.30;99.60;;;;;;5042725;28;20127;-55
2021/08/24 06:23:31;;;;;;;17.25;7.10;;;15.30;99.40;;;;;;5041941;28;20049;-54
2021/08/24 06:25:57;;;;;;;13.93;6.97;;;15.40;99.30;;;;;;5043110;28;20414;-54
2021/08/24 06:28:22;;;;;;;13.70;7.20;;;15.50;99.30;;;;;;5053190;28;20041;-56
2021/08/24 06:30:48;;;;;;;12.00;7.43;;;15.60;99.10;;;;;;5040498;28;20037;-57
2021/08/24 06:33:14;;;;;;;13.85;7.50;;;15.60;99.20;;;;;;5049192;28;20124;-58
2021/08/24 06:35:40;;;;;;;17.13;7.18;;;15.60;99.20;;;;;;5048519;28;20136;-55
2021/08/24 06:38:05;;;;;;;12.90;6.68;;;15.70;99.20;;;;;;5036322;28;20037;-55
2021/08/24 06:40:33;;;;;;;14.80;7.03;;;15.80;99.20;;;;;;5039408;28;20034;-57
2021/08/24 06:42:59;;;;;;;12.20;6.95;;;15.90;98.50;;;;;;5053200;28;20409;-57
2021/08/24 06:45:27;;;;;;;14.77;7.00;;;16.00;98.30;;;;;;5050097;28;20505;-57
2021/08/24 06:47:54;;;;;;;12.77;7.40;;;16.10;98.30;;;;;;5050186;28;20056;-54
2021/08/24 06:50:21;;;;;;;13.13;7.00;;;16.10;98.30;;;;;;5053573;28;20064;-56
2021/08/24 06:52:47;;;;;;;11.85;6.30;;;16.10;98.50;;;;;;5054269;28;20116;-57
2021/08/24 06:55:13;;;;;;;12.43;7.13;;;16.10;98.40;;;;;;5053404;28;20166;-54
2021/08/24 06:57:40;;;;;;;13.05;7.05;;;16.10;98.30;;;;;;5053943;28;20037;-57
2021/08/24 07:00:12;;;;;;;17.33;7.10;;;16.20;98.20;;;;;;5067216;28;20397;-55
2021/08/24 07:02:39;;;;;;;13.13;7.38;;;16.20;98.10;;;;;;5059788;28;20036;-57
2021/08/24 07:05:06;;;;;;;18.13;6.93;;;16.30;97.70;;;;;;5061935;28;20061;-57
2021/08/24 07:07:31;;;;;;;13.02;7.10;;;16.30;97.90;;;;;;5057207;28;20492;-57
2021/08/24 07:09:57;;;;;;;13.93;7.13;;;16.30;97.90;;;;;;5073579;28;20064;-57
2021/08/24 07:12:23;;;;;;;14.38;7.65;;;16.40;97.80;;;;;;5059309;28;20400;-53
2021/08/24 07:14:48;;;;;;;12.68;8.00;;;16.40;97.60;;;;;;5065856;28;20390;-52
2021/08/24 07:17:15;;;;;;;15.20;7.15;;;16.40;97.80;;;;;;5052730;28;20071;-52
2021/08/24 07:19:41;;;;;;;12.93;6.63;;;16.30;98.00;;;;;;5040139;28;20051;-55
2021/08/24 07:22:06;;;;;;;13.50;7.53;;;16.40;98.40;;;;;;5053854;28;20124;-52
2021/08/24 07:24:32;;;;;;;12.35;7.32;;;16.50;98.10;;;;;;5063723;28;20033;-54
2021/08/24 07:26:57;;;;;;;10.43;6.38;;;16.50;98.20;;;;;;5033309;28;20124;-54
2021/08/24 07:29:23;;;;;;;13.30;6.82;;;16.60;98.10;;;;;;5050603;28;20340;-53
2021/08/24 07:31:48;;;;;;;15.77;7.25;;;16.70;97.90;;;;;;5043089;28;20033;-54
2021/08/24 07:34:14;;;;;;;9.55;6.45;;;16.80;97.60;;;;;;5053426;28;20124;-52
2021/08/24 07:36:40;;;;;;;13.98;6.30;;;16.80;97.60;;;;;;5039585;28;20060;-52
2021/08/24 07:39:05;;;;;;;11.48;6.03;;;16.90;97.50;;;;;;5044419;28;20029;-54
2021/08/24 07:41:31;;;;;;;10.30;5.72;;;17.00;97.20;;;;;;5050231;28;20047;-51
2021/08/24 07:43:57;;;;;;;13.60;6.78;;;17.10;97.10;;;;;;5035513;28;20034;-51
2021/08/24 07:46:22;;;;;;;14.13;6.55;;;17.20;97.10;;;;;;5048822;28;20037;-54
2021/08/24 07:48:48;;;;;;;15.65;6.10;;;17.20;97.30;;;;;;5051101;28;20033;-53
2021/08/24 07:51:14;;;;;;;11.90;5.82;;;17.40;96.20;;;;;;5051787;28;20094;-56
2021/08/24 07:53:39;;;;;;;13.10;5.78;;;17.60;95.30;;;;;;5049637;28;20082;-54
2021/08/24 07:56:06;;;;;;;12.15;5.40;;;17.60;95.70;;;;;;5051682;28;20036;-56
2021/08/24 07:58:32;;;;;;;11.88;5.45;;;17.70;95.60;;;;;;5052487;28;20091;-56
2021/08/24 08:00:58;;;;;;;15.48;5.10;;;17.70;95.40;;;;;;5040090;28;20048;-55
2021/08/24 08:03:24;;;;;;;9.55;5.07;;;17.80;94.90;;;;;;5051519;28;20421;-54
2021/08/24 08:05:49;;;;;;;11.57;5.50;;;17.80;94.50;;;;;;5034347;28;20038;-51
2021/08/24 08:08:15;;;;;;;12.05;5.80;;;17.70;94.90;;;;;;5044005;28;20550;-52
2021/08/24 08:10:40;;;;;;;14.68;6.10;;;17.80;94.90;;;;;;5048898;28;20068;-54
2021/08/24 08:13:07;;;;;;;9.40;5.55;;;17.90;94.70;;;;;;5052669;28;20112;-56
2021/08/24 08:15:33;;;;;;;11.38;5.43;;;18.00;94.80;;;;;;5047305;28;20045;-54
2021/08/24 08:18:03;;;;;;;10.18;5.85;;;18.10;95.00;;;;;;5035865;28;20041;-54
2021/08/24 08:20:30;;;;;;;12.23;5.18;;;18.20;94.60;;;;;;5041763;28;20052;-54
2021/08/24 08:22:56;;;;;;;9.75;5.18;;;18.30;94.10;;;;;;5056974;28;20086;-53
2021/08/24 08:25:22;;;;;;;13.98;5.70;;;18.50;93.90;;;;;;5059350;28;20044;-57
2021/08/24 08:27:47;;;;;;;8.73;4.22;;;18.50;94.20;;;;;;5050637;28;20045;-52
2021/08/24 08:30:13;;;;;;;9.77;5.03;;;18.70;93.80;;;;;;5046525;28;20037;-57
2021/08/24 08:32:40;;;;;;;8.15;5.05;;;18.80;91.70;;;;;;5045682;28;20037;-57
2021/08/24 08:35:07;;;;;;;12.25;4.78;;;18.80;91.50;;;;;;5059437;28;20029;-55
2021/08/24 08:37:33;;;;;;;8.68;4.72;;;18.80;92.50;;;;;;5047142;28;20048;-57
2021/08/24 08:39:58;;;;;;;7.10;4.15;;;18.80;92.10;;;;;;5049555;28;20028;-55
2021/08/24 08:42:32;;;;;;;8.85;4.20;;;19.00;90.30;;;;;;5048211;28;20048;-55
2021/08/24 08:45:09;;;;;;;8.90;4.10;;;19.00;91.20;;;;;;5048789;28;20106;-53
2021/08/24 08:47:43;;;;;;;11.60;4.25;;;19.10;89.80;;;;;;5051819;28;20045;-52
2021/08/24 08:50:28;;;;;;;7.80;3.95;;;19.20;90.10;;;;;;5056955;28;20123;-56
2021/08/24 08:53:34;;;;;;;8.18;3.90;;;19.20;90.70;;;;;;5047548;28;20063;-52
2021/08/24 08:56:29;;;;;;;7.57;3.50;;;19.30;90.30;;;;;;5051533;28;20386;-53
2021/08/24 08:59:19;;;;;;;9.02;3.38;;;19.20;87.70;;;;;;5051743;28;20041;-53
2021/08/24 09:02:05;;;;;;;9.73;3.60;;;19.20;86.80;;;;;;5035571;28;20501;-54
2021/08/24 09:04:37;;;;;;;6.43;3.25;;;19.20;86.80;;;;;;5043609;28;20041;-54
2021/08/24 09:07:09;;;;;;;9.43;3.55;;;19.20;88.80;;;;;;5045267;28;20045;-52
2021/08/24 09:09:37;;;;;;;8.68;3.30;;;19.20;88.00;;;;;;5039770;28;20037;-53
2021/08/24 09:12:05;;;;;;;7.35;3.53;;;19.30;86.90;;;;;;5039135;28;20524;-52
2021/08/24 09:14:39;;;;;;;7.43;3.70;;;19.40;86.30;;;;;;5044265;28;20127;-52
2021/08/24 09:17:37;;;;;;;7.95;4.10;;;19.40;88.10;;;;;;5054910;28;20396;-56
2021/08/24 09:20:28;;;;;;;8.48;4.18;;;19.60;87.20;;;;;;5050686;28;20109;-56
2021/08/24 09:22:54;;;;;;;9.40;4.55;;;19.70;87.40;;;;;;5046763;28;20601;-53
2021/08/24 09:25:29;;;;;;;8.82;3.47;;;19.80;86.10;;;;;;5048246;28;20303;-57
2021/08/24 09:27:58;;;;;;;8.93;3.35;;;19.90;86.90;;;;;;5032165;28;20038;-57
2021/08/24 09:30:24;;;;;;;7.20;3.65;;;20.00;86.50;;;;;;5042236;28;20080;-55
2021/08/24 09:32:50;;;;;;;7.90;3.35;;;20.20;83.90;;;;;;5046417;28;20096;-57
2021/08/24 09:35:28;;;;;;;8.38;3.72;;;20.10;84.90;;;;;;5045416;28;20087;-56
2021/08/24 09:37:55;;;;;;;9.10;3.47;;;20.20;81.40;;;;;;5038337;28;20072;-53
2021/08/24 09:40:57;;;;;;;7.18;3.40;;;20.10;82.00;;;;;;5050858;28;20037;-57
2021/08/24 09:43:35;;;;;;;8.48;3.55;;;20.20;83.00;;;;;;5039288;28;20405;-55
2021/08/24 09:46:03;;;;;;;9.32;3.83;;;20.30;81.10;;;;;;5036225;28;20095;-57
2021/08/24 09:48:32;;;;;;;5.25;3.53;;;20.20;81.60;;;;;;5049504;28;20584;-55
2021/08/24 09:51:18;;;;;;;7.68;3.55;;;20.20;80.10;;;;;;5038551;28;20094;-55
2021/08/24 09:53:44;;;;;;;6.55;3.35;;;20.30;79.40;;;;;;5061600;28;20041;-55
2021/08/24 09:56:13;;;;;;;6.22;3.42;;;20.40;78.00;;;;;;5054851;28;20078;-56
2021/08/24 09:58:44;;;;;;;6.53;3.63;;;20.30;78.20;;;;;;5050098;28;20092;-55
2021/08/24 10:01:15;;;;;;;6.25;3.40;;;20.30;79.30;;;;;;5032729;28;20037;-57
2021/08/24 10:03:44;;;;;;;6.00;3.03;;;20.40;79.50;;;;;;5039494;28;20051;-57
2021/08/24 10:06:28;;;;;;;7.20;3.38;;;20.50;80.20;;;;;;5050223;28;20036;-55
2021/08/24 10:09:10;;;;;;;6.97;3.35;;;20.60;78.50;;;;;;5050575;28;20053;-54
2021/08/24 10:11:36;;;;;;;5.72;2.97;;;20.70;78.20;;;;;;5037057;28;20068;-54
2021/08/24 10:14:10;;;;;;;9.50;3.40;;;20.60;76.90;;;;;;5043406;28;20167;-56
2021/08/24 10:16:39;;;;;;;5.40;3.15;;;20.60;78.20;;;;;;5047738;28;20506;-54
2021/08/24 10:19:19;;;;;;;8.45;3.28;;;20.70;77.60;;;;;;5045796;28;20140;-58
2021/08/24 10:21:51;;;;;;;7.20;3.08;;;20.80;78.10;;;;;;5039459;28;20536;-54
2021/08/24 10:24:24;;;;;;;5.50;3.05;;;20.80;78.00;;;;;;5034924;28;20045;-55
2021/08/24 10:26:56;;;;;;;10.32;3.03;;;21.00;75.20;;;;;;5038080;28;20083;-55
2021/08/24 10:29:28;;;;;;;11.13;3.20;;;20.90;75.60;;;;;;5054548;28;20040;-57
2021/08/24 10:32:02;;;;;;;5.38;2.90;;;20.90;75.80;;;;;;5051958;28;20036;-56
2021/08/24 10:34:41;;;;;;;5.63;2.67;;;20.90;75.30;;;;;;5054765;28;20096;-55
2021/08/24 10:37:25;;;;;;;5.40;2.55;;;21.00;73.50;;;;;;5040813;28;20045;-57
2021/08/24 10:40:13;;;;;;;5.70;2.90;;;21.00;74.50;;;;;;5052360;28;20047;-54
2021/08/24 10:43:00;;;;;;;4.90;2.70;;;21.00;73.80;;;;;;5045240;28;20455;-57
2021/08/24 10:45:32;;;;;;;5.75;2.95;;;21.00;75.40;;;;;;5053453;28;20167;-57
2021/08/24 10:48:05;;;;;;;4.80;2.47;;;21.10;75.10;;;;;;5040608;28;20410;-56
2021/08/24 10:50:47;;;;;;;7.20;3.00;;;21.10;71.70;;;;;;5039626;28;20090;-57
2021/08/24 10:53:27;;;;;;;6.82;2.92;;;21.00;72.90;;;;;;5047494;28;20067;-57
2021/08/24 10:55:59;;;;;;;7.75;3.38;;;21.00;73.30;;;;;;5039796;28;20098;-56
2021/08/24 10:58:54;;;;;;;6.07;2.78;;;20.90;73.70;;;;;;5054777;28;20057;-57
2021/08/24 11:01:26;;;;;;;4.60;2.90;;;20.90;73.10;;;;;;5049923;28;20040;-57
2021/08/24 11:04:21;;;;;;;6.47;2.90;;;20.80;72.50;;;;;;5054214;28;20033;-57
2021/08/24 11:06:49;;;;;;;6.32;3.20;;;20.70;74.10;;;;;;5054030;28;20069;-58
2021/08/24 11:09:39;;;;;;;6.57;2.90;;;20.80;75.10;;;;;;5052474;28;20076;-57
2021/08/24 11:12:44;;;;;;;5.20;2.50;;;20.90;75.10;;;;;;5043268;28;20037;-57
2021/08/24 11:15:40;;;;;;;4.93;2.60;;;21.00;73.90;;;;;;5051168;28;20695;-55
2021/08/24 11:18:41;;;;;;;8.68;2.58;;;21.00;67.00;;;;;;5050908;28;20521;-55
2021/08/24 11:21:36;;;;;;;5.65;2.47;;;21.00;69.30;;;;;;5059365;28;20091;-57
2021/08/24 11:24:29;;;;;;;5.10;2.50;;;21.10;69.90;;;;;;5041132;28;20112;-54
2021/08/24 11:27:20;;;;;;;5.38;2.60;;;21.20;71.20;;;;;;5041450;28;20045;-54
2021/08/24 11:30:31;;;;;;;5.88;2.63;;;21.40;68.40;;;;;;5053283;28;20044;-55
2021/08/24 11:33:52;;;;;;;5.18;2.15;;;21.30;67.80;;;;;;5053195;28;20106;-56
2021/08/24 11:36:52;;;;;;;4.72;2.65;;;21.20;66.40;;;;;;5027564;28;20049;-57
2021/08/24 11:39:52;;;;;;;4.32;2.28;;;21.10;66.30;;;;;;5031181;28;20099;-55
2021/08/24 11:42:39;;;;;;;7.05;2.58;;;21.10;65.60;;;;;;5031398;28;20044;-57
2021/08/24 11:45:09;;;;;;;5.50;2.28;;;21.00;66.00;;;;;;5041513;28;20064;-55
2021/08/24 11:47:41;;;;;;;4.93;2.50;;;21.10;67.80;;;;;;5050084;28;20041;-55
2021/08/24 11:50:29;;;;;;;6.43;2.22;;;21.10;67.80;;;;;;5046884;28;20029;-57
2021/08/24 11:53:08;;;;;;;6.30;2.40;;;21.20;64.60;;;;;;5047067;28;20033;-57
2021/08/24 11:55:38;;;;;;;7.15;2.33;;;21.20;64.10;;;;;;5028993;28;20047;-58
2021/08/24 11:58:11;;;;;;;3.67;2.20;;;21.20;63.60;;;;;;5037810;28;20037;-55
2021/08/24 12:00:40;;;;;;;6.57;2.50;;;21.20;64.50;;;;;;5041081;28;20041;-57
2021/08/24 12:03:21;;;;;;;5.28;2.25;;;21.10;66.30;;;;;;5027383;28;20315;-55
2021/08/24 12:06:13;;;;;;;6.57;2.65;;;21.10;67.10;;;;;;5035932;28;21652;-55
2021/08/24 12:08:49;;;;;;;4.82;2.20;;;21.10;65.50;;;;;;5036762;28;20040;-55
2021/08/24 12:11:23;;;;;;;4.65;2.58;;;21.00;65.30;;;;;;5023827;28;20037;-57
2021/08/24 12:13:52;;;;;;;5.00;2.67;;;21.00;65.00;;;;;;5048983;28;20046;-55
2021/08/24 12:16:21;;;;;;;5.30;2.50;;;21.00;65.70;;;;;;5043310;28;20049;-53
2021/08/24 12:19:11;;;;;;;4.75;2.50;;;21.10;63.10;;;;;;5043729;28;20126;-55
2021/08/24 12:21:37;;;;;;;4.60;2.58;;;21.30;62.80;;;;;;5038536;28;20264;-52
2021/08/24 12:24:24;;;;;;;5.80;2.72;;;21.30;63.60;;;;;;5040762;28;20485;-53
2021/08/24 12:27:09;;;;;;;6.90;2.40;;;21.40;64.70;;;;;;5053058;28;20055;-51
2021/08/24 12:29:35;;;;;;;4.93;2.40;;;21.50;64.10;;;;;;5041414;28;20041;-52
2021/08/24 12:32:04;;;;;;;4.32;2.30;;;21.60;63.90;;;;;;5037946;28;20049;-52
2021/08/24 12:34:33;;;;;;;3.80;2.15;;;21.70;62.10;;;;;;5052136;28;20037;-54
2021/08/24 12:37:05;;;;;;;3.13;2.20;;;21.80;58.60;;;;;;5036952;28;20037;-55
2021/08/24 12:39:44;;;;;;;;;;;21.80;61.00;;;;;;5033557;28;20080;-55
2021/08/24 12:42:22;;;;;;;4.40;1.88;;;21.80;57.80;;;;;;5032142;28;19920;-52
2021/08/24 12:45:14;;;;;;;6.30;2.60;;;21.80;59.70;;;;;;5040616;28;20052;-52
2021/08/24 12:47:46;;;;;;;4.10;2.47;;;21.80;59.60;;;;;;5046320;28;20128;-55
2021/08/24 12:50:11;;;;;;;;;;;21.80;58.20;;;;;;5051491;28;20493;-52
2021/08/24 12:52:39;;;;;;;3.75;2.25;;;21.80;60.10;;;;;;5041821;28;19921;-54
2021/08/24 12:55:34;;;;;;;4.43;2.53;;;21.80;57.70;;;;;;5039528;28;20192;-56
2021/08/24 12:58:28;;;;;;;5.60;2.13;;;21.80;57.40;;;;;;5046699;28;20122;-54
2021/08/24 13:01:26;;;;;;;4.28;2.40;;;21.70;58.20;;;;;;5051357;28;20048;-53
2021/08/24 13:04:23;;;;;;;5.68;2.45;;;21.70;60.50;;;;;;5046235;28;20048;-54
2021/08/24 13:07:19;;;;;;;4.40;2.40;;;21.80;59.50;;;;;;5039383;28;20506;-52